sensor_id;sensor_type;location;lat;lon;timestamp;P1;durP1;ratioP1;P2;durP2;ratioP2
17214;SDS011;8723;51.502;6.918;2022-07-01T00:00:46;16.60;;;14.80;;
17214;SDS011;8723;51.502;6.918;2022-07-01T00:03:13;15.70;;;14.10;;
17214;SDS011;8723;51.502;6.918;2022-07-01T00:05:40;16.70;;;14.77;;
17214;SDS011;8723;51.502;6.918;2022-07-01T00:08:07;20.85;;;15.93;;
17214;SDS011;8723;51.502;6.918;2022-07-01T00:10:34;18.38;;;15.68;;
17214;SDS011;8723;51.502;6.918;2022-07-01T00:13:02;20.08;;;17.17;;
17214;SDS011;8723;51.502;6.918;2022-07-01T00:15:32;20.15;;;17.90;;
17214;SDS011;8723;51.502;6.918;2022-07-01T00:18:00;21.75;;;19.02;;
17214;SDS011;8723;51.502;6.918;2022-07-01T00:20:27;21.42;;;19.13;;
17214;SDS011;8723;51.502;6.918;2022-07-01T00:22:54;21.50;;;18.83;;
17214;SDS011;8723;51.502;6.918;2022-07-01T00:25:21;20.65;;;18.48;;
17214;SDS011;8723;51.502;6.918;2022-07-01T00:27:48;21.00;;;18.75;;
17214;SDS011;8723;51.502;6.918;2022-07-01T00:30:15;21.58;;;18.90;;
17214;SDS011;8723;51.502;6.918;2022-07-01T00:32:44;22.23;;;19.80;;
17214;SDS011;8723;51.502;6.918;2022-07-01T00:35:11;20.98;;;18.80;;
17214;SDS011;8723;51.502;6.918;2022-07-01T00:37:38;21.70;;;19.38;;
17214;SDS011;8723;51.502;6.918;2022-07-01T00:40:06;21.50;;;19.40;;
17214;SDS011;8723;51.502;6.918;2022-07-01T00:42:37;23.75;;;21.30;;
17214;SDS011;8723;51.502;6.918;2022-07-01T00:45:06;26.13;;;23.40;;
17214;SDS011;8723;51.502;6.918;2022-07-01T00:47:33;25.47;;;22.87;;
17214;SDS011;8723;51.502;6.918;2022-07-01T00:50:02;25.27;;;22.63;;
17214;SDS011;8723;51.502;6.918;2022-07-01T00:52:30;26.40;;;23.55;;
17214;SDS011;8723;51.502;6.918;2022-07-01T00:54:57;26.17;;;23.38;;
17214;SDS011;8723;51.502;6.918;2022-07-01T00:57:24;25.83;;;23.02;;
17214;SDS011;8723;51.502;6.918;2022-07-01T00:59:56;27.30;;;24.35;;
17214;SDS011;8723;51.502;6.918;2022-07-01T01:02:23;26.27;;;23.48;;
17214;SDS011;8723;51.502;6.918;2022-07-01T01:04:51;26.58;;;23.77;;
17214;SDS011;8723;51.502;6.918;2022-07-01T01:07:19;25.30;;;22.55;;
17214;SDS011;8723;51.502;6.918;2022-07-01T01:09:46;23.77;;;21.30;;
17214;SDS011;8723;51.502;6.918;2022-07-01T01:12:13;25.17;;;22.50;;
17214;SDS011;8723;51.502;6.918;2022-07-01T01:14:44;23.25;;;20.95;;
17214;SDS011;8723;51.502;6.918;2022-07-01T01:17:11;22.48;;;20.17;;
17214;SDS011;8723;51.502;6.918;2022-07-01T01:19:38;24.13;;;21.63;;
17214;SDS011;8723;51.502;6.918;2022-07-01T01:22:07;21.77;;;19.43;;
17214;SDS011;8723;51.502;6.918;2022-07-01T01:24:34;19.23;;;17.33;;
17214;SDS011;8723;51.502;6.918;2022-07-01T01:27:02;19.40;;;17.40;;
17214;SDS011;8723;51.502;6.918;2022-07-01T01:29:29;18.60;;;16.73;;
17214;SDS011;8723;51.502;6.918;2022-07-01T01:31:57;18.05;;;16.17;;
17214;SDS011;8723;51.502;6.918;2022-07-01T01:34:24;17.63;;;15.85;;
17214;SDS011;8723;51.502;6.918;2022-07-01T01:36:51;17.95;;;16.25;;
17214;SDS011;8723;51.502;6.918;2022-07-01T01:39:20;16.45;;;14.85;;
17214;SDS011;8723;51.502;6.918;2022-07-01T01:41:47;15.82;;;14.23;;
17214;SDS011;8723;51.502;6.918;2022-07-01T01:44:14;15.68;;;14.13;;
17214;SDS011;8723;51.502;6.918;2022-07-01T01:46:41;15.48;;;13.98;;
17214;SDS011;8723;51.502;6.918;2022-07-01T01:49:09;15.25;;;13.65;;
17214;SDS011;8723;51.502;6.918;2022-07-01T01:51:36;13.98;;;12.57;;
17214;SDS011;8723;51.502;6.918;2022-07-01T01:54:03;13.40;;;12.10;;
17214;SDS011;8723;51.502;6.918;2022-07-01T01:56:32;12.43;;;11.23;;
17214;SDS011;8723;51.502;6.918;2022-07-01T01:58:59;12.88;;;11.55;;
17214;SDS011;8723;51.502;6.918;2022-07-01T02:01:27;11.43;;;10.32;;
17214;SDS011;8723;51.502;6.918;2022-07-01T02:03:54;12.25;;;11.00;;
17214;SDS011;8723;51.502;6.918;2022-07-01T02:06:21;11.80;;;10.00;;
17214;SDS011;8723;51.502;6.918;2022-07-01T02:08:48;10.27;;;9.27;;
17214;SDS011;8723;51.502;6.918;2022-07-01T02:11:15;10.35;;;9.27;;
17214;SDS011;8723;51.502;6.918;2022-07-01T02:13:44;9.80;;;8.85;;
17214;SDS011;8723;51.502;6.918;2022-07-01T02:16:11;10.70;;;9.33;;
17214;SDS011;8723;51.502;6.918;2022-07-01T02:18:38;10.25;;;9.30;;
17214;SDS011;8723;51.502;6.918;2022-07-01T02:21:06;10.40;;;9.30;;
17214;SDS011;8723;51.502;6.918;2022-07-01T02:23:33;10.40;;;9.32;;
17214;SDS011;8723;51.502;6.918;2022-07-01T02:26:00;10.35;;;9.25;;
17214;SDS011;8723;51.502;6.918;2022-07-01T02:28:27;12.35;;;9.55;;
17214;SDS011;8723;51.502;6.918;2022-07-01T02:30:56;12.57;;;9.35;;
17214;SDS011;8723;51.502;6.918;2022-07-01T02:33:23;11.15;;;9.52;;
17214;SDS011;8723;51.502;6.918;2022-07-01T02:35:50;14.43;;;9.48;;
17214;SDS011;8723;51.502;6.918;2022-07-01T02:38:17;13.45;;;10.48;;
17214;SDS011;8723;51.502;6.918;2022-07-01T02:40:44;12.60;;;10.70;;
17214;SDS011;8723;51.502;6.918;2022-07-01T02:43:12;14.82;;;10.85;;
17214;SDS011;8723;51.502;6.918;2022-07-01T02:45:41;11.70;;;10.45;;
17214;SDS011;8723;51.502;6.918;2022-07-01T02:48:09;13.80;;;10.40;;
17214;SDS011;8723;51.502;6.918;2022-07-01T02:50:36;13.35;;;10.30;;
17214;SDS011;8723;51.502;6.918;2022-07-01T02:53:03;12.00;;;10.25;;
17214;SDS011;8723;51.502;6.918;2022-07-01T02:55:31;12.65;;;10.52;;
17214;SDS011;8723;51.502;6.918;2022-07-01T02:57:58;14.80;;;11.37;;
17214;SDS011;8723;51.502;6.918;2022-07-01T03:00:25;12.13;;;10.27;;
17214;SDS011;8723;51.502;6.918;2022-07-01T03:02:52;16.13;;;10.82;;
17214;SDS011;8723;51.502;6.918;2022-07-01T03:05:22;14.10;;;9.82;;
17214;SDS011;8723;51.502;6.918;2022-07-01T03:07:49;13.57;;;10.70;;
17214;SDS011;8723;51.502;6.918;2022-07-01T03:10:16;15.07;;;10.73;;
17214;SDS011;8723;51.502;6.918;2022-07-01T03:12:43;12.10;;;10.57;;
17214;SDS011;8723;51.502;6.918;2022-07-01T03:15:11;14.27;;;10.95;;
17214;SDS011;8723;51.502;6.918;2022-07-01T03:17:40;13.02;;;11.30;;
17214;SDS011;8723;51.502;6.918;2022-07-01T03:20:08;13.23;;;11.50;;
17214;SDS011;8723;51.502;6.918;2022-07-01T03:22:38;14.13;;;11.55;;
17214;SDS011;8723;51.502;6.918;2022-07-01T03:25:06;13.25;;;10.32;;
17214;SDS011;8723;51.502;6.918;2022-07-01T03:27:33;13.70;;;11.27;;
17214;SDS011;8723;51.502;6.918;2022-07-01T03:30:01;14.00;;;10.83;;
17214;SDS011;8723;51.502;6.918;2022-07-01T03:32:28;13.15;;;10.38;;
17214;SDS011;8723;51.502;6.918;2022-07-01T03:34:55;14.05;;;10.43;;
17214;SDS011;8723;51.502;6.918;2022-07-01T03:37:22;12.20;;;10.10;;
17214;SDS011;8723;51.502;6.918;2022-07-01T03:39:51;10.45;;;9.35;;
17214;SDS011;8723;51.502;6.918;2022-07-01T03:42:18;11.97;;;10.20;;
17214;SDS011;8723;51.502;6.918;2022-07-01T03:44:46;13.15;;;10.90;;
17214;SDS011;8723;51.502;6.918;2022-07-01T03:47:13;14.20;;;10.40;;
17214;SDS011;8723;51.502;6.918;2022-07-01T03:49:40;12.00;;;10.30;;
17214;SDS011;8723;51.502;6.918;2022-07-01T03:52:07;10.68;;;9.32;;
17214;SDS011;8723;51.502;6.918;2022-07-01T03:54:34;12.90;;;10.18;;
17214;SDS011;8723;51.502;6.918;2022-07-01T03:57:05;12.55;;;9.95;;
17214;SDS011;8723;51.502;6.918;2022-07-01T03:59:34;12.87;;;10.23;;
17214;SDS011;8723;51.502;6.918;2022-07-01T04:02:02;13.00;;;9.60;;
17214;SDS011;8723;51.502;6.918;2022-07-01T04:04:29;12.18;;;10.30;;
17214;SDS011;8723;51.502;6.918;2022-07-01T04:06:57;11.43;;;10.25;;
17214;SDS011;8723;51.502;6.918;2022-07-01T04:09:24;11.93;;;10.40;;
17214;SDS011;8723;51.502;6.918;2022-07-01T04:11:51;12.20;;;9.95;;
17214;SDS011;8723;51.502;6.918;2022-07-01T04:14:20;15.23;;;12.15;;
17214;SDS011;8723;51.502;6.918;2022-07-01T04:16:49;16.13;;;12.90;;
17214;SDS011;8723;51.502;6.918;2022-07-01T04:19:16;17.80;;;13.02;;
17214;SDS011;8723;51.502;6.918;2022-07-01T04:21:43;15.85;;;14.05;;
17214;SDS011;8723;51.502;6.918;2022-07-01T04:24:28;16.30;;;13.02;;
17214;SDS011;8723;51.502;6.918;2022-07-01T04:26:57;14.65;;;13.13;;
17214;SDS011;8723;51.502;6.918;2022-07-01T04:29:26;16.90;;;13.32;;
17214;SDS011;8723;51.502;6.918;2022-07-01T04:31:54;15.23;;;12.57;;
17214;SDS011;8723;51.502;6.918;2022-07-01T04:34:21;15.05;;;12.52;;
17214;SDS011;8723;51.502;6.918;2022-07-01T04:36:49;15.70;;;13.23;;
17214;SDS011;8723;51.502;6.918;2022-07-01T04:39:16;15.90;;;11.65;;
17214;SDS011;8723;51.502;6.918;2022-07-01T04:41:43;12.55;;;11.30;;
17214;SDS011;8723;51.502;6.918;2022-07-01T04:44:26;13.93;;;11.50;;
17214;SDS011;8723;51.502;6.918;2022-07-01T04:46:54;12.20;;;10.88;;
17214;SDS011;8723;51.502;6.918;2022-07-01T04:49:21;13.35;;;11.27;;
17214;SDS011;8723;51.502;6.918;2022-07-01T04:51:48;12.85;;;11.52;;
17214;SDS011;8723;51.502;6.918;2022-07-01T04:54:15;13.25;;;11.00;;
17214;SDS011;8723;51.502;6.918;2022-07-01T04:56:43;10.52;;;9.43;;
17214;SDS011;8723;51.502;6.918;2022-07-01T04:59:10;10.18;;;9.15;;
17214;SDS011;8723;51.502;6.918;2022-07-01T05:01:39;11.15;;;10.05;;
17214;SDS011;8723;51.502;6.918;2022-07-01T05:04:06;11.55;;;10.35;;
17214;SDS011;8723;51.502;6.918;2022-07-01T05:06:33;11.13;;;9.55;;
17214;SDS011;8723;51.502;6.918;2022-07-01T05:09:00;11.82;;;10.57;;
17214;SDS011;8723;51.502;6.918;2022-07-01T05:11:28;10.60;;;9.50;;
17214;SDS011;8723;51.502;6.918;2022-07-01T05:13:55;10.18;;;9.13;;
17214;SDS011;8723;51.502;6.918;2022-07-01T05:16:22;10.70;;;9.60;;
17214;SDS011;8723;51.502;6.918;2022-07-01T05:18:50;11.43;;;9.70;;
17214;SDS011;8723;51.502;6.918;2022-07-01T05:21:35;11.25;;;10.05;;
17214;SDS011;8723;51.502;6.918;2022-07-01T05:24:20;14.98;;;10.23;;
17214;SDS011;8723;51.502;6.918;2022-07-01T05:26:47;9.98;;;8.98;;
17214;SDS011;8723;51.502;6.918;2022-07-01T05:29:14;11.25;;;9.57;;
17214;SDS011;8723;51.502;6.918;2022-07-01T05:31:42;10.23;;;8.57;;
17214;SDS011;8723;51.502;6.918;2022-07-01T05:34:10;9.52;;;8.52;;
17214;SDS011;8723;51.502;6.918;2022-07-01T05:36:37;9.10;;;8.10;;
17214;SDS011;8723;51.502;6.918;2022-07-01T05:39:04;11.70;;;8.40;;
17214;SDS011;8723;51.502;6.918;2022-07-01T05:41:32;9.82;;;8.18;;
17214;SDS011;8723;51.502;6.918;2022-07-01T05:43:59;10.18;;;9.05;;
17214;SDS011;8723;51.502;6.918;2022-07-01T05:46:27;10.25;;;9.20;;
17214;SDS011;8723;51.502;6.918;2022-07-01T05:48:54;11.87;;;10.23;;
17214;SDS011;8723;51.502;6.918;2022-07-01T05:51:22;10.90;;;9.80;;
17214;SDS011;8723;51.502;6.918;2022-07-01T05:53:49;11.07;;;9.88;;
17214;SDS011;8723;51.502;6.918;2022-07-01T05:56:17;13.35;;;10.50;;
17214;SDS011;8723;51.502;6.918;2022-07-01T05:58:44;13.48;;;10.85;;
17214;SDS011;8723;51.502;6.918;2022-07-01T06:01:11;13.32;;;10.75;;
17214;SDS011;8723;51.502;6.918;2022-07-01T06:03:38;11.68;;;9.95;;
17214;SDS011;8723;51.502;6.918;2022-07-01T06:06:05;12.40;;;11.10;;
17214;SDS011;8723;51.502;6.918;2022-07-01T06:08:34;11.93;;;10.70;;
17214;SDS011;8723;51.502;6.918;2022-07-01T06:11:01;12.50;;;10.93;;
17214;SDS011;8723;51.502;6.918;2022-07-01T06:13:28;13.98;;;12.55;;
17214;SDS011;8723;51.502;6.918;2022-07-01T06:15:55;14.60;;;12.18;;
17214;SDS011;8723;51.502;6.918;2022-07-01T06:18:23;14.20;;;12.40;;
17214;SDS011;8723;51.502;6.918;2022-07-01T06:20:51;13.25;;;11.85;;
17214;SDS011;8723;51.502;6.918;2022-07-01T06:23:18;13.30;;;12.00;;
17214;SDS011;8723;51.502;6.918;2022-07-01T06:25:47;14.80;;;13.02;;
17214;SDS011;8723;51.502;6.918;2022-07-01T06:28:14;13.77;;;12.45;;
17214;SDS011;8723;51.502;6.918;2022-07-01T06:30:41;14.85;;;12.43;;
17214;SDS011;8723;51.502;6.918;2022-07-01T06:33:11;12.13;;;11.02;;
17214;SDS011;8723;51.502;6.918;2022-07-01T06:35:38;11.82;;;10.60;;
17214;SDS011;8723;51.502;6.918;2022-07-01T06:38:05;11.75;;;10.60;;
17214;SDS011;8723;51.502;6.918;2022-07-01T06:40:32;12.38;;;11.27;;
17214;SDS011;8723;51.502;6.918;2022-07-01T06:43:01;12.13;;;11.00;;
17214;SDS011;8723;51.502;6.918;2022-07-01T06:45:28;11.67;;;10.47;;
17214;SDS011;8723;51.502;6.918;2022-07-01T06:47:55;12.20;;;10.93;;
17214;SDS011;8723;51.502;6.918;2022-07-01T06:50:23;12.13;;;10.93;;
17214;SDS011;8723;51.502;6.918;2022-07-01T06:52:50;11.25;;;9.90;;
17214;SDS011;8723;51.502;6.918;2022-07-01T06:55:17;11.73;;;10.52;;
17214;SDS011;8723;51.502;6.918;2022-07-01T06:57:44;10.88;;;9.88;;
17214;SDS011;8723;51.502;6.918;2022-07-01T07:00:13;12.30;;;10.88;;
17214;SDS011;8723;51.502;6.918;2022-07-01T07:02:40;12.05;;;10.77;;
17214;SDS011;8723;51.502;6.918;2022-07-01T07:05:08;12.40;;;11.10;;
17214;SDS011;8723;51.502;6.918;2022-07-01T07:07:35;12.23;;;9.93;;
17214;SDS011;8723;51.502;6.918;2022-07-01T07:10:03;11.05;;;10.05;;
17214;SDS011;8723;51.502;6.918;2022-07-01T07:12:30;10.82;;;9.73;;
17214;SDS011;8723;51.502;6.918;2022-07-01T07:14:57;10.88;;;9.80;;
17214;SDS011;8723;51.502;6.918;2022-07-01T07:17:26;10.57;;;9.68;;
17214;SDS011;8723;51.502;6.918;2022-07-01T07:19:53;9.73;;;8.73;;
17214;SDS011;8723;51.502;6.918;2022-07-01T07:22:21;9.77;;;8.77;;
17214;SDS011;8723;51.502;6.918;2022-07-01T07:24:48;10.10;;;7.73;;
17214;SDS011;8723;51.502;6.918;2022-07-01T07:27:15;8.57;;;7.67;;
17214;SDS011;8723;51.502;6.918;2022-07-01T07:29:42;8.48;;;7.78;;
17214;SDS011;8723;51.502;6.918;2022-07-01T07:32:09;8.90;;;8.07;;
17214;SDS011;8723;51.502;6.918;2022-07-01T07:34:38;8.05;;;7.25;;
17214;SDS011;8723;51.502;6.918;2022-07-01T07:37:05;7.78;;;7.00;;
17214;SDS011;8723;51.502;6.918;2022-07-01T07:39:32;6.85;;;5.93;;
17214;SDS011;8723;51.502;6.918;2022-07-01T07:42:00;7.05;;;6.35;;
17214;SDS011;8723;51.502;6.918;2022-07-01T07:44:27;8.00;;;7.22;;
17214;SDS011;8723;51.502;6.918;2022-07-01T07:46:54;7.20;;;6.50;;
17214;SDS011;8723;51.502;6.918;2022-07-01T07:49:22;6.30;;;5.68;;
17214;SDS011;8723;51.502;6.918;2022-07-01T07:51:51;8.00;;;7.23;;
17214;SDS011;8723;51.502;6.918;2022-07-01T07:54:18;8.00;;;7.15;;
17214;SDS011;8723;51.502;6.918;2022-07-01T07:56:46;8.25;;;6.10;;
17214;SDS011;8723;51.502;6.918;2022-07-01T07:59:13;8.48;;;6.45;;
17214;SDS011;8723;51.502;6.918;2022-07-01T08:01:40;6.78;;;5.97;;
17214;SDS011;8723;51.502;6.918;2022-07-01T08:04:07;7.27;;;5.93;;
17214;SDS011;8723;51.502;6.918;2022-07-01T08:06:34;6.13;;;5.53;;
17214;SDS011;8723;51.502;6.918;2022-07-01T08:09:03;8.23;;;6.82;;
17214;SDS011;8723;51.502;6.918;2022-07-01T08:11:31;6.05;;;4.60;;
17214;SDS011;8723;51.502;6.918;2022-07-01T08:13:58;5.20;;;4.15;;
17214;SDS011;8723;51.502;6.918;2022-07-01T08:16:25;5.32;;;4.43;;
17214;SDS011;8723;51.502;6.918;2022-07-01T08:18:53;5.87;;;4.37;;
17214;SDS011;8723;51.502;6.918;2022-07-01T08:21:20;5.03;;;4.53;;
17214;SDS011;8723;51.502;6.918;2022-07-01T08:23:48;5.93;;;5.10;;
17214;SDS011;8723;51.502;6.918;2022-07-01T08:26:16;5.60;;;5.10;;
17214;SDS011;8723;51.502;6.918;2022-07-01T08:28:43;6.03;;;4.40;;
17214;SDS011;8723;51.502;6.918;2022-07-01T08:31:10;4.68;;;3.60;;
17214;SDS011;8723;51.502;6.918;2022-07-01T08:33:37;4.03;;;3.13;;
17214;SDS011;8723;51.502;6.918;2022-07-01T08:36:05;3.75;;;3.05;;
17214;SDS011;8723;51.502;6.918;2022-07-01T08:38:32;5.43;;;3.43;;
17214;SDS011;8723;51.502;6.918;2022-07-01T08:41:00;3.55;;;3.10;;
17214;SDS011;8723;51.502;6.918;2022-07-01T08:43:28;3.90;;;3.00;;
17214;SDS011;8723;51.502;6.918;2022-07-01T08:45:56;4.85;;;3.50;;
17214;SDS011;8723;51.502;6.918;2022-07-01T08:48:26;3.67;;;3.23;;
17214;SDS011;8723;51.502;6.918;2022-07-01T08:50:53;6.67;;;3.40;;
17214;SDS011;8723;51.502;6.918;2022-07-01T08:53:20;5.25;;;3.13;;
17214;SDS011;8723;51.502;6.918;2022-07-01T08:55:47;4.93;;;3.17;;
17214;SDS011;8723;51.502;6.918;2022-07-01T08:58:34;3.97;;;2.80;;
17214;SDS011;8723;51.502;6.918;2022-07-01T09:01:11;2.88;;;2.67;;
17214;SDS011;8723;51.502;6.918;2022-07-01T09:03:39;2.75;;;2.30;;
17214;SDS011;8723;51.502;6.918;2022-07-01T09:06:10;3.33;;;2.25;;
17214;SDS011;8723;51.502;6.918;2022-07-01T09:08:38;2.72;;;2.17;;
17214;SDS011;8723;51.502;6.918;2022-07-01T09:11:10;3.53;;;2.30;;
17214;SDS011;8723;51.502;6.918;2022-07-01T09:13:39;3.95;;;2.10;;
17214;SDS011;8723;51.502;6.918;2022-07-01T09:16:10;2.53;;;1.95;;
17214;SDS011;8723;51.502;6.918;2022-07-01T09:18:37;3.33;;;2.10;;
17214;SDS011;8723;51.502;6.918;2022-07-01T09:21:06;3.28;;;2.00;;
17214;SDS011;8723;51.502;6.918;2022-07-01T09:23:34;4.82;;;2.20;;
17214;SDS011;8723;51.502;6.918;2022-07-01T09:26:01;4.80;;;2.15;;
17214;SDS011;8723;51.502;6.918;2022-07-01T09:28:28;4.68;;;2.20;;
17214;SDS011;8723;51.502;6.918;2022-07-01T09:30:57;4.70;;;2.53;;
17214;SDS011;8723;51.502;6.918;2022-07-01T09:33:25;4.20;;;2.38;;
17214;SDS011;8723;51.502;6.918;2022-07-01T09:35:54;3.85;;;2.13;;
17214;SDS011;8723;51.502;6.918;2022-07-01T09:38:22;3.47;;;2.30;;
17214;SDS011;8723;51.502;6.918;2022-07-01T09:40:51;3.95;;;2.20;;
17214;SDS011;8723;51.502;6.918;2022-07-01T09:43:18;2.80;;;1.70;;
17214;SDS011;8723;51.502;6.918;2022-07-01T09:45:53;2.67;;;1.90;;
17214;SDS011;8723;51.502;6.918;2022-07-01T09:48:22;3.38;;;1.85;;
17214;SDS011;8723;51.502;6.918;2022-07-01T09:50:50;2.57;;;1.73;;
17214;SDS011;8723;51.502;6.918;2022-07-01T09:53:17;3.20;;;1.77;;
17214;SDS011;8723;51.502;6.918;2022-07-01T09:55:45;2.05;;;1.67;;
17214;SDS011;8723;51.502;6.918;2022-07-01T09:58:12;2.78;;;1.38;;
17214;SDS011;8723;51.502;6.918;2022-07-01T10:00:40;2.97;;;1.63;;
17214;SDS011;8723;51.502;6.918;2022-07-01T10:03:07;4.22;;;1.60;;
17214;SDS011;8723;51.502;6.918;2022-07-01T10:05:37;3.10;;;1.70;;
17214;SDS011;8723;51.502;6.918;2022-07-01T10:08:10;1.70;;;1.50;;
17214;SDS011;8723;51.502;6.918;2022-07-01T10:10:42;2.60;;;1.80;;
17214;SDS011;8723;51.502;6.918;2022-07-01T10:13:11;2.22;;;1.35;;
17214;SDS011;8723;51.502;6.918;2022-07-01T10:15:40;2.70;;;1.40;;
17214;SDS011;8723;51.502;6.918;2022-07-01T10:18:18;1.90;;;1.20;;
17214;SDS011;8723;51.502;6.918;2022-07-01T10:20:47;1.77;;;1.30;;
17214;SDS011;8723;51.502;6.918;2022-07-01T10:23:14;1.60;;;1.15;;
17214;SDS011;8723;51.502;6.918;2022-07-01T10:25:42;2.25;;;1.20;;
17214;SDS011;8723;51.502;6.918;2022-07-01T10:28:16;3.15;;;1.30;;
17214;SDS011;8723;51.502;6.918;2022-07-01T10:30:54;2.13;;;1.25;;
17214;SDS011;8723;51.502;6.918;2022-07-01T10:33:29;1.90;;;1.30;;
17214;SDS011;8723;51.502;6.918;2022-07-01T10:36:04;1.75;;;1.23;;
17214;SDS011;8723;51.502;6.918;2022-07-01T10:38:31;2.90;;;1.20;;
17214;SDS011;8723;51.502;6.918;2022-07-01T10:40:58;1.97;;;1.03;;
17214;SDS011;8723;51.502;6.918;2022-07-01T10:43:35;3.25;;;1.50;;
17214;SDS011;8723;51.502;6.918;2022-07-01T10:51:30;2.15;;;1.20;;
17214;SDS011;8723;51.502;6.918;2022-07-01T10:54:08;2.50;;;1.30;;
17214;SDS011;8723;51.502;6.918;2022-07-01T10:56:38;1.20;;;1.10;;
17214;SDS011;8723;51.502;6.918;2022-07-01T10:59:05;2.42;;;1.40;;
17214;SDS011;8723;51.502;6.918;2022-07-01T11:01:33;3.07;;;1.43;;
17214;SDS011;8723;51.502;6.918;2022-07-01T11:04:00;2.03;;;1.43;;
17214;SDS011;8723;51.502;6.918;2022-07-01T11:06:28;1.50;;;1.30;;
17214;SDS011;8723;51.502;6.918;2022-07-01T11:09:02;2.45;;;1.48;;
17214;SDS011;8723;51.502;6.918;2022-07-01T11:11:30;1.95;;;1.30;;
17214;SDS011;8723;51.502;6.918;2022-07-01T11:13:57;2.97;;;1.40;;
17214;SDS011;8723;51.502;6.918;2022-07-01T11:16:24;2.65;;;1.40;;
17214;SDS011;8723;51.502;6.918;2022-07-01T11:18:51;1.23;;;1.10;;
17214;SDS011;8723;51.502;6.918;2022-07-01T11:21:19;2.17;;;1.00;;
17214;SDS011;8723;51.502;6.918;2022-07-01T11:23:52;1.85;;;1.27;;
17214;SDS011;8723;51.502;6.918;2022-07-01T11:26:21;1.85;;;1.30;;
17214;SDS011;8723;51.502;6.918;2022-07-01T11:28:49;2.42;;;1.10;;
17214;SDS011;8723;51.502;6.918;2022-07-01T11:31:26;3.70;;;1.30;;
17214;SDS011;8723;51.502;6.918;2022-07-01T11:33:53;2.03;;;1.30;;
17214;SDS011;8723;51.502;6.918;2022-07-01T11:36:21;3.55;;;1.10;;
17214;SDS011;8723;51.502;6.918;2022-07-01T11:39:15;2.17;;;1.15;;
17214;SDS011;8723;51.502;6.918;2022-07-01T11:41:52;1.23;;;0.90;;
17214;SDS011;8723;51.502;6.918;2022-07-01T11:44:27;1.98;;;1.08;;
17214;SDS011;8723;51.502;6.918;2022-07-01T11:46:54;1.90;;;1.20;;
17214;SDS011;8723;51.502;6.918;2022-07-01T11:49:22;1.73;;;1.10;;
17214;SDS011;8723;51.502;6.918;2022-07-01T11:51:53;2.20;;;1.05;;
17214;SDS011;8723;51.502;6.918;2022-07-01T11:54:20;2.30;;;1.38;;
17214;SDS011;8723;51.502;6.918;2022-07-01T11:56:50;2.53;;;1.08;;
17214;SDS011;8723;51.502;6.918;2022-07-01T11:59:21;1.53;;;1.07;;
17214;SDS011;8723;51.502;6.918;2022-07-01T12:01:54;3.63;;;1.20;;
17214;SDS011;8723;51.502;6.918;2022-07-01T12:04:24;2.45;;;0.95;;
17214;SDS011;8723;51.502;6.918;2022-07-01T12:06:51;2.10;;;0.98;;
17214;SDS011;8723;51.502;6.918;2022-07-01T12:09:19;1.63;;;0.85;;
17214;SDS011;8723;51.502;6.918;2022-07-01T12:11:46;1.73;;;1.00;;
17214;SDS011;8723;51.502;6.918;2022-07-01T12:14:18;1.73;;;0.98;;
17214;SDS011;8723;51.502;6.918;2022-07-01T12:16:50;3.13;;;1.20;;
17214;SDS011;8723;51.502;6.918;2022-07-01T12:19:17;1.30;;;1.08;;
17214;SDS011;8723;51.502;6.918;2022-07-01T12:21:48;1.70;;;0.95;;
17214;SDS011;8723;51.502;6.918;2022-07-01T12:24:15;1.98;;;0.88;;
17214;SDS011;8723;51.502;6.918;2022-07-01T12:26:47;2.38;;;1.20;;
17214;SDS011;8723;51.502;6.918;2022-07-01T12:29:14;1.80;;;0.80;;
17214;SDS011;8723;51.502;6.918;2022-07-01T12:31:42;1.40;;;0.80;;
17214;SDS011;8723;51.502;6.918;2022-07-01T12:34:10;2.30;;;0.60;;
17214;SDS011;8723;51.502;6.918;2022-07-01T12:36:46;2.72;;;0.80;;
17214;SDS011;8723;51.502;6.918;2022-07-01T12:39:13;3.47;;;0.90;;
17214;SDS011;8723;51.502;6.918;2022-07-01T12:41:48;1.38;;;0.73;;
17214;SDS011;8723;51.502;6.918;2022-07-01T12:44:22;2.42;;;0.93;;
17214;SDS011;8723;51.502;6.918;2022-07-01T12:46:50;1.00;;;0.65;;
17214;SDS011;8723;51.502;6.918;2022-07-01T12:49:19;0.80;;;0.77;;
17214;SDS011;8723;51.502;6.918;2022-07-01T12:51:47;1.67;;;0.80;;
17214;SDS011;8723;51.502;6.918;2022-07-01T12:54:30;1.48;;;0.70;;
17214;SDS011;8723;51.502;6.918;2022-07-01T12:56:58;1.67;;;0.73;;
17214;SDS011;8723;51.502;6.918;2022-07-01T12:59:25;0.85;;;0.50;;
17214;SDS011;8723;51.502;6.918;2022-07-01T13:01:52;0.70;;;0.60;;
17214;SDS011;8723;51.502;6.918;2022-07-01T13:04:25;0.87;;;0.57;;
17214;SDS011;8723;51.502;6.918;2022-07-01T13:06:52;1.40;;;0.93;;
17214;SDS011;8723;51.502;6.918;2022-07-01T13:09:20;1.90;;;0.60;;
17214;SDS011;8723;51.502;6.918;2022-07-01T13:11:47;1.88;;;0.70;;
17214;SDS011;8723;51.502;6.918;2022-07-01T13:14:14;0.85;;;0.70;;
17214;SDS011;8723;51.502;6.918;2022-07-01T13:16:41;0.80;;;0.70;;
17214;SDS011;8723;51.502;6.918;2022-07-01T13:19:08;1.77;;;0.85;;
17214;SDS011;8723;51.502;6.918;2022-07-01T13:21:37;1.35;;;0.63;;
17214;SDS011;8723;51.502;6.918;2022-07-01T13:24:04;1.70;;;0.80;;
17214;SDS011;8723;51.502;6.918;2022-07-01T13:26:31;1.60;;;0.90;;
17214;SDS011;8723;51.502;6.918;2022-07-01T13:28:58;1.90;;;0.68;;
17214;SDS011;8723;51.502;6.918;2022-07-01T13:31:25;0.50;;;0.43;;
17214;SDS011;8723;51.502;6.918;2022-07-01T13:33:52;1.05;;;0.60;;
17214;SDS011;8723;51.502;6.918;2022-07-01T13:36:20;0.80;;;0.60;;
17214;SDS011;8723;51.502;6.918;2022-07-01T13:38:48;2.00;;;0.90;;
17214;SDS011;8723;51.502;6.918;2022-07-01T13:41:15;2.53;;;0.87;;
17214;SDS011;8723;51.502;6.918;2022-07-01T13:43:43;0.90;;;0.75;;
17214;SDS011;8723;51.502;6.918;2022-07-01T13:46:10;0.90;;;0.60;;
17214;SDS011;8723;51.502;6.918;2022-07-01T13:48:37;0.82;;;0.70;;
17214;SDS011;8723;51.502;6.918;2022-07-01T13:51:04;1.55;;;0.70;;
17214;SDS011;8723;51.502;6.918;2022-07-01T13:53:31;1.92;;;0.80;;
17214;SDS011;8723;51.502;6.918;2022-07-01T13:56:00;1.80;;;0.82;;
17214;SDS011;8723;51.502;6.918;2022-07-01T13:58:27;2.55;;;0.90;;
17214;SDS011;8723;51.502;6.918;2022-07-01T14:00:54;1.10;;;0.80;;
17214;SDS011;8723;51.502;6.918;2022-07-01T14:03:22;1.30;;;0.75;;
17214;SDS011;8723;51.502;6.918;2022-07-01T14:05:49;2.47;;;1.00;;
17214;SDS011;8723;51.502;6.918;2022-07-01T14:08:18;1.10;;;0.70;;
17214;SDS011;8723;51.502;6.918;2022-07-01T14:10:45;1.20;;;0.70;;
17214;SDS011;8723;51.502;6.918;2022-07-01T14:13:13;1.83;;;0.50;;
17214;SDS011;8723;51.502;6.918;2022-07-01T14:15:41;1.00;;;0.60;;
17214;SDS011;8723;51.502;6.918;2022-07-01T14:18:08;1.05;;;0.75;;
17214;SDS011;8723;51.502;6.918;2022-07-01T14:20:35;1.05;;;0.68;;
17214;SDS011;8723;51.502;6.918;2022-07-01T14:23:03;3.07;;;0.90;;
17214;SDS011;8723;51.502;6.918;2022-07-01T14:25:30;3.40;;;0.90;;
17214;SDS011;8723;51.502;6.918;2022-07-01T14:27:57;1.70;;;0.90;;
17214;SDS011;8723;51.502;6.918;2022-07-01T14:30:25;2.47;;;1.02;;
17214;SDS011;8723;51.502;6.918;2022-07-01T14:32:52;1.77;;;0.90;;
17214;SDS011;8723;51.502;6.918;2022-07-01T14:35:20;1.77;;;1.00;;
17214;SDS011;8723;51.502;6.918;2022-07-01T14:37:47;2.10;;;0.90;;
17214;SDS011;8723;51.502;6.918;2022-07-01T14:40:14;1.60;;;0.82;;
17214;SDS011;8723;51.502;6.918;2022-07-01T14:42:41;2.70;;;1.10;;
17214;SDS011;8723;51.502;6.918;2022-07-01T14:45:09;1.33;;;1.10;;
17214;SDS011;8723;51.502;6.918;2022-07-01T14:47:40;1.45;;;0.70;;
17214;SDS011;8723;51.502;6.918;2022-07-01T14:50:07;1.20;;;0.73;;
17214;SDS011;8723;51.502;6.918;2022-07-01T14:52:35;2.03;;;0.80;;
17214;SDS011;8723;51.502;6.918;2022-07-01T14:55:02;2.60;;;1.00;;
17214;SDS011;8723;51.502;6.918;2022-07-01T14:57:29;1.25;;;0.80;;
17214;SDS011;8723;51.502;6.918;2022-07-01T14:59:56;2.15;;;0.80;;
17214;SDS011;8723;51.502;6.918;2022-07-01T15:02:24;1.00;;;0.70;;